METAR stanice u blizini

 

LYNI - Nis, Yugoslavia
Distance from station: JZ 40km
Ažurirano: 23/06/2024 15:30
Delimično oblačno
Delimično oblačno
 Pravac vetra SZ
Vetar: SZ 19 km/h
Temperatura: 34°C
Heat Index: 36°C
Tačka rose: 20°C
Vlažnost: 44%
Pritisak: 1007 hPa
Oblaci: Delimično oblačno
Vidljivost: 10 km
Cloud details: Few Clouds 1128 m
Delimično oblačno 1219 m
2024/06/23 13:30 LYNI 231330Z 32010KT 290V360 9999 FEW037TCU SCT040 34/20 Q1007 NOSIG
LYKV - Kraljevo, Yugoslavia
Distance from station: ZSZ 136km
Ažurirano: 23/06/2024 15:30
Pretežno oblačno
Pretežno oblačno
 Pravac vetra S
Vetar: S 11 km/h
Temperatura: 29°C
Heat Index: 31°C
Tačka rose: 20°C
Vlažnost: 58%
Pritisak: 1009 hPa
Oblaci: Pretežno oblačno
Vidljivost: 10 km
Cloud details: Pretežno oblačno 1219 m
2024/06/23 13:30 LYKV 231330Z 36006KT 320V030 9999 BKN040 29/20 Q1009 NOSIG
LBSF - Sofia (observato, Bulgaria
Distance from station: JI 138km
Ažurirano: 23/06/2024 15:30
Few Clouds
Few Clouds
 Pravac vetra JI
Vetar: JI 20 km/h
Temperatura: 33°C
Tačka rose: 13°C
Vlažnost: 30%
Pritisak: 1009 hPa
Oblaci: Few Clouds
Vidljivost: 10 km
Cloud details: Few Clouds 2347 m
2024/06/23 13:30 LBSF 231330Z 13011KT 9999 FEW077 33/13 Q1009 NOSIG
 
BKPR - Prishtina, Yugoslavia
Distance from station: JZ 147km
Ažurirano: 23/06/2024 15:30
Delimično oblačno
Delimično oblačno
 Pravac vetra varies
Vetar: varies 2 km/h
Temperatura: 33°C
Tačka rose: 17°C
Vlažnost: 38%
Pritisak: 1008 hPa
Oblaci: Delimično oblačno
Vidljivost: 10 km
Cloud details: Few Clouds 1219 m
Delimično oblačno 2438 m
2024/06/23 13:30 BKPR 231330Z VRB01KT 9999 FEW040CB SCT080 33/17 Q1008 TEMPO TS
LRCV - Craiova, Romania
Distance from station: SI 154km
Ažurirano: 23/06/2024 15:30
Vedro
Vedro
 Pravac vetra I
Vetar: I 11 km/h
Temperatura: 35°C
Tačka rose: 7°C
Vlažnost: 18%
Pritisak: 1008 hPa
Pregled: Vedro
Vidljivost: greater than 10 km
2024/06/23 13:30 LRCV 231330Z 08006KT 030V120 CAVOK 35/07 Q1008
LWSK - Skopje/Petrovac, Macedonia
Distance from station: JJZ 185km
Ažurirano: 23/06/2024 15:20
Delimično oblačno
Delimično oblačno
 Pravac vetra varies
Vetar: varies 4 km/h
Temperatura: 33°C
Heat Index: 36°C
Tačka rose: 21°C
Vlažnost: 49%
Pritisak: 1006 hPa
Oblaci: Delimično oblačno
Vidljivost: 10 km
Cloud details: Few Clouds 1219 m
Delimično oblačno 2743 m
2024/06/23 13:20 LWSK 231320Z VRB02KT 9999 FEW040 SCT090 33/21 Q1006 NOSIG
 
LYVR - Vrsac, Yugoslavia
Distance from station: SSZ 189km
Ažurirano: 23/06/2024 15:30
Vedro
Vedro
 Pravac vetra S
Vetar: S 6 km/h
Temperatura: 33°C
Tačka rose: 17°C
Vlažnost: 38%
Pritisak: 1008 hPa
Pregled: Vedro
Vidljivost: greater than 10 km
2024/06/23 13:30 LYVR 231330Z AUTO 01003KT 320V080 CAVOK 33/17 Q1008
LYUZ - Uzice-Ponikve, Yugoslavia
Distance from station: Z 207km
Ažurirano: 04/11/2021 00:30
NOT Current

 Pravac vetra varies
Vetar: varies 9 km/h
Temperatura: 14°C
Tačka rose: 7°C
Vlažnost: 63%
Pritisak: 1010 hPa
Vidljivost: 10 km
2021/11/03 23:30 LYUZ 032330Z AUTO VRB05KT 9999 ////// 14/07 Q1010
LYBE - Belgrade/Surcin, Yugoslavia
Distance from station: SZ 209km
Ažurirano: 23/06/2024 15:30
Pretežno oblačno
Pretežno oblačno
 Pravac vetra ZSZ
Vetar: ZSZ 9 km/h
Temperatura: 29°C
Heat Index: 31°C
Tačka rose: 20°C
Vlažnost: 58%
Pritisak: 1009 hPa
Oblaci: Pretežno oblačno
Vidljivost: 10 km
Cloud details: Pretežno oblačno 1311 m
2024/06/23 13:30 LYBE 231330Z 29005KT 260V340 9999 BKN043 29/20 Q1009 NOSIG
 
LYBT - Batajnica, Yugoslavia
Distance from station: SZ 219km
Ažurirano: 23/06/2024 15:30
Pretežno oblačno
Pretežno oblačno
 Pravac vetra SSZ
Vetar: SSZ 9 km/h
Temperatura: 32°C
Heat Index: 34°C
Tačka rose: 20°C
Vlažnost: 49%
Pritisak: 1009 hPa
Oblaci: Pretežno oblačno
Vidljivost: 10 km
Cloud details: Pretežno oblačno 1219 m
2024/06/23 13:30 LYBT 231330Z 34005KT 280V030 9999 BKN040 32/20 Q1009 NOSIG
LRTR - Timisoara/Giarma, Romania
Distance from station: SSZ 260km
Ažurirano: 23/06/2024 15:30
Vedro
Vedro
 Pravac vetra S
Vetar: S 28 km/h
Temperatura: 30°C
Heat Index: 31°C
Tačka rose: 18°C
Vlažnost: 49%
Pritisak: 1009 hPa
Pregled: Vedro
Vidljivost: greater than 10 km
2024/06/23 13:30 LRTR 231330Z 36015KT CAVOK 30/18 Q1009
LBPD - Plovdiv, Bulgaria
Distance from station: JI 263km
Ažurirano: 23/06/2024 15:30
Vedro
Vedro
 Pravac vetra I
Vetar: I 20 km/h
Temperatura: 34°C
Tačka rose: 8°C
Vlažnost: 20%
Pritisak: 1008 hPa
Oblaci: Vedro
Vidljivost: 10 km
2024/06/23 13:30 LBPD 231330Z AUTO 08011KT 050V110 9999 NCD 34/08 Q1008 NOSIG
 
LYPG - Podgorica(Titogr, Yugoslavia
Distance from station: ZJZ 278km
Ažurirano: 23/06/2024 15:30
Vedro
Vedro
 Pravac vetra JJZ
Vetar: JJZ 11 km/h
Temperatura: 35°C
Tačka rose: 18°C
Vlažnost: 36%
Pritisak: 1006 hPa
Pregled: Vedro
Vidljivost: greater than 10 km
2024/06/23 13:30 LYPG 231330Z 21006KT 160V240 CAVOK 35/18 Q1006 NOSIG
LBGO - Gorna Orechovist, Bulgaria
Distance from station: I 285km
Ažurirano: 23/06/2024 15:30
Few Clouds
Few Clouds
 Pravac vetra I
Vetar: I 17 km/h
Temperatura: 35°C
Tačka rose: 13°C
Vlažnost: 26%
Pritisak: 1007 hPa
Oblaci: Few Clouds
Vidljivost: 10 km
Cloud details: Few Clouds 7010 m
2024/06/23 13:30 LBGO 231330Z AUTO 09009KT 070V140 9999 FEW230/// 35/13 Q1007 NOSIG
LRSB - Sibiu/Turnisor, Romania
Distance from station: SSI 286km
Ažurirano: 23/06/2024 15:30
Few Clouds
Few Clouds
 Pravac vetra J
Vetar: J 11 km/h
Temperatura: 27°C
Heat Index: 29°C
Tačka rose: 20°C
Vlažnost: 66%
Pritisak: 1013 hPa
Oblaci: Few Clouds
Vidljivost: 10 km
Cloud details: Few Clouds 1524 m
2024/06/23 13:30 LRSB 231330Z 17006KT 140V210 9999 FEW050TCU 27/20 Q1013
 
LWOH - Ohrid, Macedonia
Distance from station: JJZ 292km
Ažurirano: 23/06/2024 15:20
Few Clouds
Few Clouds
 Pravac vetra J
Vetar: J 11 km/h
Temperatura: 30°C
Heat Index: 33°C
Tačka rose: 21°C
Vlažnost: 59%
Pritisak: 1010 hPa
Oblaci: Few Clouds
Vidljivost: 10 km
Cloud details: Few Clouds 1372 m
2024/06/23 13:20 LWOH 231320Z 18006KT 150V220 9999 FEW045TCU 30/21 Q1010
LQTZ - Tuzla, Yugoslavia
Distance from station: ZSZ 298km
Ažurirano: 23/06/2024 15:30
Pretežno oblačno
Pretežno oblačno
 Pravac vetra SZ
Vetar: SZ 7 km/h
Temperatura: 26°C
Tačka rose: 18°C
Vlažnost: 61%
Pritisak: 1011 hPa
Oblaci: Pretežno oblačno
Vidljivost: 10 km
Cloud details: Pretežno oblačno 1067 m
2024/06/23 13:30 LQTZ 231330Z 31004KT 270V010 9999 BKN035 26/18 Q1011
LRAR - Arad, Romania
Distance from station: SSZ 301km
Ažurirano: 23/06/2024 15:30
Delimično oblačno
Delimično oblačno
 Pravac vetra S
Vetar: S 22 km/h
Temperatura: 26°C
Tačka rose: 19°C
Vlažnost: 65%
Pritisak: 1010 hPa
Oblaci: Delimično oblačno
Vidljivost: 10 km
Cloud details: Delimično oblačno 1280 m
2024/06/23 13:30 LRAR 231330Z 01012KT 9999 SCT042 26/19 Q1010
 
LYTV - Tivat, Yugoslavia
Distance from station: ZJZ 315km
Ažurirano: 23/06/2024 15:30
Few Clouds
Few Clouds
 Pravac vetra ZJZ
Vetar: ZJZ 9 km/h
Temperatura: 31°C
Heat Index: 36°C
Tačka rose: 23°C
Vlažnost: 62%
Pritisak: 1007 hPa
Oblaci: Few Clouds
Vidljivost: 10 km
Cloud details: Few Clouds 1006 m
2024/06/23 13:30 LYTV 231330Z 24005KT 200V290 9999 FEW033 31/23 Q1007 NOSIG
LATI - Tirana, Albania
Distance from station: JZ 316km
Ažurirano: 23/06/2024 15:20
Vedro
Vedro
 Pravac vetra SZ
Vetar: SZ 17 km/h
Temperatura: 32°C
Heat Index: 38°C
Tačka rose: 24°C
Vlažnost: 63%
Pritisak: 1007 hPa
Pregled: Vedro
Vidljivost: greater than 10 km
2024/06/23 13:20 LATI 231320Z 32009KT 290V350 CAVOK 32/24 Q1007 NOSIG
LQBK - Banja Luka, Yugoslavia
Distance from station: SZ 426km
Ažurirano: 23/06/2024 15:30
Delimično oblačno
Delimično oblačno
 Pravac vetra SSZ
Vetar: SSZ 9 km/h
Temperatura: 26°C
Tačka rose: 17°C
Vlažnost: 58%
Pritisak: 1011 hPa
Oblaci: Delimično oblačno
Vidljivost: 10 km
Cloud details: Delimično oblačno 1372 m
2024/06/23 13:30 LQBK 231330Z 33005KT 260V030 9999 SCT045 26/17 Q1011 NOSIG
 
LDOS - Osijek, Croatia
Distance from station: SSZ 360km
Ažurirano: 23/06/2024 15:30
Pretežno oblačno
Pretežno oblačno
 Pravac vetra S
Vetar: S 22 km/h
Temperatura: 28°C
Heat Index: 29°C
Tačka rose: 20°C
Vlažnost: 62%
Pritisak: 1011 hPa
Oblaci: Pretežno oblačno
Vidljivost: 10 km
Cloud details: Pretežno oblačno 1311 m
2024/06/23 13:30 LDOS 231330Z 35012KT 9999 BKN043 28/20 Q1011
LDDU - Dubrovnik-Cilipi, Croatia
Distance from station: JZ 352km
Ažurirano: 23/06/2024 15:30
Vedro
Vedro
 Pravac vetra ZJZ
Vetar: ZJZ 11 km/h
Temperatura: 30°C
Heat Index: 31°C
Tačka rose: 17°C
Vlažnost: 46%
Pritisak: 1008 hPa
Pregled: Vedro
Vidljivost: greater than 10 km
2024/06/23 13:30 LDDU 231330Z 24006KT 170V290 CAVOK 30/17 Q1008 NOSIG
LQMO - Mostar Airport, Bosnia-Herzegovina
Distance from station: Z 359km
Ažurirano: 23/06/2024 15:30
Few Clouds
Few Clouds
 Pravac vetra JJZ
Vetar: JJZ 17 km/h
Temperatura: 36°C
Tačka rose: 15°C
Vlažnost: 28%
Pritisak: 1005 hPa
Oblaci: Few Clouds
Vidljivost: 10 km
Cloud details: Few Clouds 1372 m
2024/06/23 13:30 LQMO 231330Z 20009KT 170V240 9999 FEW045 36/15 Q1005
 
LQSA - Sarajevo/Butmir, Yugoslavia
Distance from station: Z 311km
Ažurirano: 23/06/2024 15:30
Delimično oblačno
Delimično oblačno
 Pravac vetra ZSZ
Vetar: ZSZ 24 km/h
Temperatura: 28°C
Heat Index: 29°C
Tačka rose: 19°C
Vlažnost: 58%
Pritisak: 1010 hPa
Oblaci: Delimično oblačno
Vidljivost: 10 km
Cloud details: Delimično oblačno 1524 m
2024/06/23 13:30 LQSA 231330Z 30013KT 270V340 9999 SCT050 28/19 Q1010 NOSIG
LDSP - Split/Kastel Sta, Croatia
Distance from station: Z 468km
Ažurirano: 23/06/2024 15:30
Few Clouds
Few Clouds
 Pravac vetra Z
Vetar: Z 33 km/h
Temperatura: 33°C
Tačka rose: 15°C
Vlažnost: 34%
Pritisak: 1006 hPa
Oblaci: Few Clouds
Vidljivost: 10 km
Cloud details: Few Clouds 1524 m
2024/06/23 13:30 LDSP 231330Z 28018KT 260V320 9999 FEW050 33/15 Q1006 NOSIG
LDZD - Zadar/Zemunik, Croatia
Distance from station: ZSZ 567km
Ažurirano: 23/06/2024 15:30
Few Clouds
Few Clouds
 Pravac vetra SZ
Vetar: SZ 17 km/h
Temperatura: 31°C
Tačka rose: 14°C
Vlažnost: 35%
Pritisak: 1009 hPa
Oblaci: Few Clouds
Vidljivost: 10 km
Cloud details: Few Clouds 1524 m
2024/06/23 13:30 LDZD 231330Z 31009KT 260V010 9999 FEW050 31/14 Q1009 NOSIG
 
LDZA - Zagreb/Pleso, Croatia
Distance from station: SZ 555km
Ažurirano: 23/06/2024 15:30
Vedro
Vedro
 Pravac vetra SSI
Vetar: SSI 24 km/h
Temperatura: 26°C
Tačka rose: 13°C
Vlažnost: 45%
Pritisak: 1013 hPa
Pregled: Vedro
Vidljivost: greater than 10 km
2024/06/23 13:30 LDZA 231330Z 02013KT 340V090 CAVOK 26/13 Q1013 NOSIG
LJCE - Cerklje, Slovenia
Distance from station: SZ 680km
Ažurirano: 23/06/2024 15:30
Vedro
Vedro
 Pravac vetra ISI
Vetar: ISI 17 km/h
Temperatura: 26°C
Tačka rose: 11°C
Vlažnost: 39%
Pritisak: 1013 hPa
Pregled: Vedro
Vidljivost: greater than 10 km
2024/06/23 13:30 LJCE 231330Z 06009KT CAVOK 26/11 Q1013 RMK BLU
LJMB - Maribor, Slovenia
Distance from station: SZ 616km
Ažurirano: 23/06/2024 15:30
Pretežno oblačno
Pretežno oblačno
 Pravac vetra SI
Vetar: SI 15 km/h
Temperatura: 25°C
Tačka rose: 11°C
Vlažnost: 42%
Pritisak: 1014 hPa
Oblaci: Pretežno oblačno
Vidljivost: 10 km
Cloud details: Few Clouds 1250 m
Pretežno oblačno 2713 m
2024/06/23 13:30 LJMB 231330Z 05008KT 020V080 9999 FEW041 BKN089 25/11 Q1014
 
LJLJ - Ljubljana/Brnik, Slovenia
Distance from station: SZ 671km
Ažurirano: 23/06/2024 15:30
Pretežno oblačno
Pretežno oblačno
 Pravac vetra IJI
Vetar: IJI 19 km/h
Temperatura: 25°C
Tačka rose: 13°C
Vlažnost: 47%
Pritisak: 1013 hPa
Oblaci: Pretežno oblačno
Vidljivost: 10 km
Cloud details: Few Clouds 1524 m
Pretežno oblačno 1981 m
2024/06/23 13:30 LJLJ 231330Z 11010KT 080V140 9999 FEW050 BKN065 25/13 Q1013 NOSIG
LDRI - Rijeka, Croatia
Distance from station: SZ 650km
Ažurirano: 23/06/2024 15:30
Vedro
Vedro
 Pravac vetra SI
Vetar: SI 24 km/h
Temperatura: 28°C
Tačka rose: 11°C
Vlažnost: 35%
Pritisak: 1010 hPa
Pregled: Vedro
Vidljivost: greater than 10 km
2024/06/23 13:30 LDRI 231330Z 05013KT 020V100 CAVOK 28/11 Q1010
LDPL - Pula, Croatia
Distance from station: ZSZ 686km
Ažurirano: 23/06/2024 15:30
Vedro
Vedro
 Pravac vetra I
Vetar: I 24 km/h
Temperatura: 27°C
Heat Index: 27°C
Tačka rose: 13°C
Vlažnost: 42%
Pritisak: 1010 hPa
Pregled: Vedro
Vidljivost: greater than 10 km
2024/06/23 13:30 LDPL 231330Z 08013KT CAVOK 27/13 Q1010 NOSIG
 
LJPZ - Portorož, Slovenia
Distance from station: ZSZ 720km
Ažurirano: 23/06/2024 15:30
Pretežno oblačno
Pretežno oblačno
 Pravac vetra S
Vetar: S 6 km/h
Temperatura: 28°C
Heat Index: 28°C
Tačka rose: 15°C
Vlažnost: 45%
Pritisak: 1010 hPa
Oblaci: Pretežno oblačno
Vidljivost: 10 km
Cloud details: Delimično oblačno 2134 m
Pretežno oblačno 6096 m
2024/06/23 13:30 LJPZ 231330Z 36003KT 260V060 9999 SCT070 BKN200 28/15 Q1010